sensor_id;sensor_type;location;lat;lon;timestamp;pressure;altitude;pressure_sealevel;temperature;humidity
3294;BME280;1659;51.470;6.770;2022-10-22T00:01:00;100830.47;;;14.54;96.66
3294;BME280;1659;51.470;6.770;2022-10-22T00:03:26;100844.59;;;14.57;96.67
3294;BME280;1659;51.470;6.770;2022-10-22T00:05:53;100842.78;;;14.59;96.45
3294;BME280;1659;51.470;6.770;2022-10-22T00:08:21;100836.50;;;14.61;96.43
3294;BME280;1659;51.470;6.770;2022-10-22T00:10:48;100840.94;;;14.61;96.42
3294;BME280;1659;51.470;6.770;2022-10-22T00:13:14;100840.94;;;14.61;96.51
3294;BME280;1659;51.470;6.770;2022-10-22T00:15:41;100840.94;;;14.61;96.63
3294;BME280;1659;51.470;6.770;2022-10-22T00:18:08;100851.66;;;14.59;96.35
3294;BME280;1659;51.470;6.770;2022-10-22T00:20:34;100849.91;;;14.57;96.44
3294;BME280;1659;51.470;6.770;2022-10-22T00:23:01;100850.84;;;14.56;96.71
3294;BME280;1659;51.470;6.770;2022-10-22T00:25:29;100853.59;;;14.52;96.53
3294;BME280;1659;51.470;6.770;2022-10-22T00:27:56;100853.59;;;14.52;96.80
3294;BME280;1659;51.470;6.770;2022-10-22T00:30:22;100853.69;;;14.49;96.82
3294;BME280;1659;51.470;6.770;2022-10-22T00:32:49;100852.94;;;14.46;96.76
3294;BME280;1659;51.470;6.770;2022-10-22T00:35:16;100855.59;;;14.46;97.09
3294;BME280;1659;51.470;6.770;2022-10-22T00:37:42;100858.34;;;14.43;97.13
3294;BME280;1659;51.470;6.770;2022-10-22T00:40:10;100853.97;;;14.42;96.99
3294;BME280;1659;51.470;6.770;2022-10-22T00:42:38;100855.75;;;14.41;97.12
3294;BME280;1659;51.470;6.770;2022-10-22T00:45:21;100848.78;;;14.37;96.89
3294;BME280;1659;51.470;6.770;2022-10-22T00:47:51;100851.44;;;14.37;96.94
3294;BME280;1659;51.470;6.770;2022-10-22T00:50:22;100853.25;;;14.37;97.32
3294;BME280;1659;51.470;6.770;2022-10-22T00:52:50;100844.44;;;14.34;97.21
3294;BME280;1659;51.470;6.770;2022-10-22T00:55:17;100832.81;;;14.39;97.34
3294;BME280;1659;51.470;6.770;2022-10-22T00:57:46;100833.59;;;14.41;97.50
3294;BME280;1659;51.470;6.770;2022-10-22T01:00:14;100838.88;;;14.42;97.42
3294;BME280;1659;51.470;6.770;2022-10-22T01:02:41;100840.56;;;14.45;97.49
3294;BME280;1659;51.470;6.770;2022-10-22T01:05:08;100847.66;;;14.44;97.34
3294;BME280;1659;51.470;6.770;2022-10-22T01:07:42;100846.81;;;14.44;97.41
3294;BME280;1659;51.470;6.770;2022-10-22T01:10:19;100852.19;;;14.42;97.61
3294;BME280;1659;51.470;6.770;2022-10-22T01:12:56;100848.56;;;14.43;97.55
3294;BME280;1659;51.470;6.770;2022-10-22T01:15:34;100839.69;;;14.44;97.74
3294;BME280;1659;51.470;6.770;2022-10-22T01:18:06;100837.94;;;14.43;97.91
3294;BME280;1659;51.470;6.770;2022-10-22T01:20:47;100830.03;;;14.42;97.53
3294;BME280;1659;51.470;6.770;2022-10-22T01:23:29;100832.69;;;14.42;97.92
3294;BME280;1659;51.470;6.770;2022-10-22T01:26:05;100830.91;;;14.42;97.66
3294;BME280;1659;51.470;6.770;2022-10-22T01:28:49;100835.28;;;14.43;97.89
3294;BME280;1659;51.470;6.770;2022-10-22T01:31:19;100821.94;;;14.45;97.71
3294;BME280;1659;51.470;6.770;2022-10-22T01:33:48;100821.09;;;14.44;97.89
3294;BME280;1659;51.470;6.770;2022-10-22T01:36:17;100834.31;;;14.46;98.01
3294;BME280;1659;51.470;6.770;2022-10-22T01:38:45;100831.63;;;14.47;97.88
3294;BME280;1659;51.470;6.770;2022-10-22T01:41:12;100822.00;;;14.43;98.14
3294;BME280;1659;51.470;6.770;2022-10-22T01:43:39;100818.66;;;14.38;97.98
3294;BME280;1659;51.470;6.770;2022-10-22T01:46:09;100829.28;;;14.38;98.38
3294;BME280;1659;51.470;6.770;2022-10-22T01:48:46;100815.13;;;14.36;98.21
3294;BME280;1659;51.470;6.770;2022-10-22T01:51:33;100816.91;;;14.37;98.29
3294;BME280;1659;51.470;6.770;2022-10-22T01:54:12;100823.06;;;14.38;98.33
3294;BME280;1659;51.470;6.770;2022-10-22T01:56:55;100826.63;;;14.38;98.24
3294;BME280;1659;51.470;6.770;2022-10-22T01:59:32;100821.31;;;14.38;98.32
3294;BME280;1659;51.470;6.770;2022-10-22T02:02:08;100806.16;;;14.40;98.53
3294;BME280;1659;51.470;6.770;2022-10-22T02:04:42;100813.19;;;14.41;98.40
3294;BME280;1659;51.470;6.770;2022-10-22T02:07:13;100808.69;;;14.43;98.47
3294;BME280;1659;51.470;6.770;2022-10-22T02:09:42;100811.31;;;14.45;98.72
3294;BME280;1659;51.470;6.770;2022-10-22T02:12:10;100817.47;;;14.47;98.51
3294;BME280;1659;51.470;6.770;2022-10-22T02:14:40;100809.53;;;14.45;98.54
3294;BME280;1659;51.470;6.770;2022-10-22T02:17:12;100821.09;;;14.44;98.68
3294;BME280;1659;51.470;6.770;2022-10-22T02:19:46;100827.25;;;14.45;98.65
3294;BME280;1659;51.470;6.770;2022-10-22T02:22:13;100822.84;;;14.45;98.75
3294;BME280;1659;51.470;6.770;2022-10-22T02:24:40;100822.00;;;14.43;98.94
3294;BME280;1659;51.470;6.770;2022-10-22T02:27:11;100821.13;;;14.43;99.06
3294;BME280;1659;51.470;6.770;2022-10-22T02:29:45;100820.31;;;14.41;99.03
3294;BME280;1659;51.470;6.770;2022-10-22T02:32:19;100825.59;;;14.42;99.03
3294;BME280;1659;51.470;6.770;2022-10-22T02:34:48;100820.28;;;14.42;99.17
3294;BME280;1659;51.470;6.770;2022-10-22T02:37:17;100828.19;;;14.44;98.99
3294;BME280;1659;51.470;6.770;2022-10-22T02:39:44;100820.16;;;14.45;99.16
3294;BME280;1659;51.470;6.770;2022-10-22T02:42:11;100823.59;;;14.49;99.08
3294;BME280;1659;51.470;6.770;2022-10-22T02:44:38;100826.19;;;14.50;99.26
3294;BME280;1659;51.470;6.770;2022-10-22T02:47:04;100831.41;;;14.53;99.04
3294;BME280;1659;51.470;6.770;2022-10-22T02:49:32;100831.34;;;14.55;99.40
3294;BME280;1659;51.470;6.770;2022-10-22T02:51:59;100829.50;;;14.57;99.12
3294;BME280;1659;51.470;6.770;2022-10-22T02:54:26;100831.28;;;14.58;99.17
3294;BME280;1659;51.470;6.770;2022-10-22T02:56:52;100833.94;;;14.57;98.82
3294;BME280;1659;51.470;6.770;2022-10-22T02:59:19;100838.41;;;14.56;99.12
3294;BME280;1659;51.470;6.770;2022-10-22T03:01:45;100838.47;;;14.54;99.24
3294;BME280;1659;51.470;6.770;2022-10-22T03:04:12;100839.38;;;14.53;99.37
3294;BME280;1659;51.470;6.770;2022-10-22T03:06:40;100834.06;;;14.53;99.66
3294;BME280;1659;51.470;6.770;2022-10-22T03:09:08;100837.56;;;14.56;99.61
3294;BME280;1659;51.470;6.770;2022-10-22T03:11:34;100841.03;;;14.58;99.62
3294;BME280;1659;51.470;6.770;2022-10-22T03:14:01;100845.38;;;14.60;99.62
3294;BME280;1659;51.470;6.770;2022-10-22T03:16:27;100842.63;;;14.63;99.57
3294;BME280;1659;51.470;6.770;2022-10-22T03:18:54;100838.13;;;14.65;99.46
3294;BME280;1659;51.470;6.770;2022-10-22T03:21:27;100835.50;;;14.64;99.58
3294;BME280;1659;51.470;6.770;2022-10-22T03:23:57;100841.72;;;14.64;99.35
3294;BME280;1659;51.470;6.770;2022-10-22T03:26:24;100840.84;;;14.64;99.27
3294;BME280;1659;51.470;6.770;2022-10-22T03:28:52;100841.78;;;14.63;99.32
3294;BME280;1659;51.470;6.770;2022-10-22T03:31:19;100842.69;;;14.62;99.52
3294;BME280;1659;51.470;6.770;2022-10-22T03:33:46;100845.38;;;14.60;99.89
3294;BME280;1659;51.470;6.770;2022-10-22T03:36:12;100858.72;;;14.59;99.56
3294;BME280;1659;51.470;6.770;2022-10-22T03:38:39;100849.97;;;14.55;99.46
3294;BME280;1659;51.470;6.770;2022-10-22T03:41:08;100849.25;;;14.50;99.66
3294;BME280;1659;51.470;6.770;2022-10-22T03:43:35;100850.22;;;14.47;99.85
3294;BME280;1659;51.470;6.770;2022-10-22T03:46:03;100852.97;;;14.44;99.74
3294;BME280;1659;51.470;6.770;2022-10-22T03:48:29;100851.34;;;14.40;99.73
3294;BME280;1659;51.470;6.770;2022-10-22T03:50:56;100854.13;;;14.37;99.90
3294;BME280;1659;51.470;6.770;2022-10-22T03:53:22;100858.72;;;14.32;100.00
3294;BME280;1659;51.470;6.770;2022-10-22T03:55:49;100868.53;;;14.30;99.98
3294;BME280;1659;51.470;6.770;2022-10-22T03:58:17;100864.06;;;14.30;100.00
3294;BME280;1659;51.470;6.770;2022-10-22T04:00:43;100870.19;;;14.32;100.00
3294;BME280;1659;51.470;6.770;2022-10-22T04:03:10;100864.84;;;14.34;100.00
3294;BME280;1659;51.470;6.770;2022-10-22T04:05:36;100859.53;;;14.34;100.00
3294;BME280;1659;51.470;6.770;2022-10-22T04:08:03;100866.59;;;14.35;100.00
3294;BME280;1659;51.470;6.770;2022-10-22T04:10:30;100867.41;;;14.37;100.00
3294;BME280;1659;51.470;6.770;2022-10-22T04:12:56;100873.63;;;14.36;100.00
3294;BME280;1659;51.470;6.770;2022-10-22T04:15:24;100880.78;;;14.34;100.00
3294;BME280;1659;51.470;6.770;2022-10-22T04:17:53;100873.84;;;14.30;100.00
3294;BME280;1659;51.470;6.770;2022-10-22T04:20:20;100880.13;;;14.27;100.00
3294;BME280;1659;51.470;6.770;2022-10-22T04:22:46;100880.34;;;14.21;100.00
3294;BME280;1659;51.470;6.770;2022-10-22T04:25:13;100881.28;;;14.19;100.00
3294;BME280;1659;51.470;6.770;2022-10-22T04:27:39;100880.50;;;14.15;100.00
3294;BME280;1659;51.470;6.770;2022-10-22T04:30:07;100889.41;;;14.14;100.00
3294;BME280;1659;51.470;6.770;2022-10-22T04:32:35;100890.28;;;14.14;100.00
3294;BME280;1659;51.470;6.770;2022-10-22T04:35:02;100890.38;;;14.11;100.00
3294;BME280;1659;51.470;6.770;2022-10-22T04:37:28;100895.69;;;14.11;100.00
3294;BME280;1659;51.470;6.770;2022-10-22T04:39:57;100897.47;;;14.11;100.00
3294;BME280;1659;51.470;6.770;2022-10-22T04:42:23;100894.06;;;14.07;100.00
3294;BME280;1659;51.470;6.770;2022-10-22T04:44:50;100895.06;;;14.03;100.00
3294;BME280;1659;51.470;6.770;2022-10-22T04:47:16;100891.66;;;14.00;100.00
3294;BME280;1659;51.470;6.770;2022-10-22T04:49:44;100893.50;;;13.96;100.00
3294;BME280;1659;51.470;6.770;2022-10-22T04:52:11;100898.94;;;13.93;100.00
3294;BME280;1659;51.470;6.770;2022-10-22T04:54:37;100895.50;;;13.89;100.00
3294;BME280;1659;51.470;6.770;2022-10-22T04:57:04;100900.91;;;13.86;100.00
3294;BME280;1659;51.470;6.770;2022-10-22T04:59:31;100896.50;;;13.85;100.00
3294;BME280;1659;51.470;6.770;2022-10-22T05:01:57;100907.22;;;13.82;100.00
3294;BME280;1659;51.470;6.770;2022-10-22T05:04:24;100901.97;;;13.81;100.00
3294;BME280;1659;51.470;6.770;2022-10-22T05:06:52;100900.25;;;13.78;100.00
3294;BME280;1659;51.470;6.770;2022-10-22T05:09:19;100910.13;;;13.73;100.00
3294;BME280;1659;51.470;6.770;2022-10-22T05:11:47;100909.28;;;13.72;100.00
3294;BME280;1659;51.470;6.770;2022-10-22T05:14:15;100918.16;;;13.71;100.00
3294;BME280;1659;51.470;6.770;2022-10-22T05:16:42;100908.53;;;13.67;100.00
3294;BME280;1659;51.470;6.770;2022-10-22T05:19:14;100922.78;;;13.65;100.00
3294;BME280;1659;51.470;6.770;2022-10-22T05:21:41;100917.53;;;13.63;100.00
3294;BME280;1659;51.470;6.770;2022-10-22T05:24:09;100915.75;;;13.62;100.00
3294;BME280;1659;51.470;6.770;2022-10-22T05:26:36;100925.56;;;13.60;100.00
3294;BME280;1659;51.470;6.770;2022-10-22T05:29:02;100922.94;;;13.58;100.00
3294;BME280;1659;51.470;6.770;2022-10-22T05:31:29;100928.34;;;13.55;100.00
3294;BME280;1659;51.470;6.770;2022-10-22T05:33:55;100916.03;;;13.53;100.00
3294;BME280;1659;51.470;6.770;2022-10-22T05:36:22;100920.38;;;13.55;100.00
3294;BME280;1659;51.470;6.770;2022-10-22T05:38:49;100916.88;;;13.55;100.00
3294;BME280;1659;51.470;6.770;2022-10-22T05:41:19;100920.38;;;13.55;100.00
3294;BME280;1659;51.470;6.770;2022-10-22T05:43:45;100927.47;;;13.55;100.00
3294;BME280;1659;51.470;6.770;2022-10-22T05:46:13;100929.25;;;13.56;100.00
3294;BME280;1659;51.470;6.770;2022-10-22T05:48:40;100932.78;;;13.55;100.00
3294;BME280;1659;51.470;6.770;2022-10-22T05:51:08;100933.66;;;13.55;100.00
3294;BME280;1659;51.470;6.770;2022-10-22T05:53:37;100937.13;;;13.57;100.00
3294;BME280;1659;51.470;6.770;2022-10-22T05:56:06;100938.03;;;13.58;100.00
3294;BME280;1659;51.470;6.770;2022-10-22T05:58:35;100946.88;;;13.57;100.00
3294;BME280;1659;51.470;6.770;2022-10-22T06:01:02;100946.84;;;13.58;100.00
3294;BME280;1659;51.470;6.770;2022-10-22T06:03:29;100945.94;;;13.59;100.00
3294;BME280;1659;51.470;6.770;2022-10-22T06:05:59;100954.69;;;13.63;100.00
3294;BME280;1659;51.470;6.770;2022-10-22T06:08:26;100955.53;;;13.65;100.00
3294;BME280;1659;51.470;6.770;2022-10-22T06:10:53;100951.94;;;13.66;100.00
3294;BME280;1659;51.470;6.770;2022-10-22T06:13:19;100952.78;;;13.68;100.00
3294;BME280;1659;51.470;6.770;2022-10-22T06:15:48;100961.56;;;13.70;100.00
3294;BME280;1659;51.470;6.770;2022-10-22T06:18:16;100961.53;;;13.72;100.00
3294;BME280;1659;51.470;6.770;2022-10-22T06:20:43;100955.25;;;13.74;100.00
3294;BME280;1659;51.470;6.770;2022-10-22T06:23:10;100961.34;;;13.78;100.00
3294;BME280;1659;51.470;6.770;2022-10-22T06:25:36;100965.66;;;13.82;100.00
3294;BME280;1659;51.470;6.770;2022-10-22T06:28:03;100968.22;;;13.85;100.00
3294;BME280;1659;51.470;6.770;2022-10-22T06:30:29;100985.91;;;13.86;100.00
3294;BME280;1659;51.470;6.770;2022-10-22T06:32:57;100990.34;;;13.86;100.00
3294;BME280;1659;51.470;6.770;2022-10-22T06:35:24;100988.50;;;13.88;100.00
3294;BME280;1659;51.470;6.770;2022-10-22T06:37:50;100995.56;;;13.89;100.00
3294;BME280;1659;51.470;6.770;2022-10-22T06:40:17;100995.47;;;13.92;100.00
3294;BME280;1659;51.470;6.770;2022-10-22T06:42:43;101001.56;;;13.95;100.00
3294;BME280;1659;51.470;6.770;2022-10-22T06:45:10;100997.03;;;13.99;100.00
3294;BME280;1659;51.470;6.770;2022-10-22T06:47:36;101005.75;;;14.04;100.00
3294;BME280;1659;51.470;6.770;2022-10-22T06:50:05;101011.75;;;14.11;100.00
3294;BME280;1659;51.470;6.770;2022-10-22T06:52:32;101009.75;;;14.19;100.00
3294;BME280;1659;51.470;6.770;2022-10-22T06:54:58;101012.13;;;14.28;100.00
3294;BME280;1659;51.470;6.770;2022-10-22T06:57:25;101024.19;;;14.40;100.00
3294;BME280;1659;51.470;6.770;2022-10-22T06:59:51;101027.28;;;14.54;100.00
3294;BME280;1659;51.470;6.770;2022-10-22T07:02:18;101030.34;;;14.70;100.00
3294;BME280;1659;51.470;6.770;2022-10-22T07:04:45;101038.69;;;14.86;100.00
3294;BME280;1659;51.470;6.770;2022-10-22T07:07:12;101038.25;;;15.00;100.00
3294;BME280;1659;51.470;6.770;2022-10-22T07:09:40;101035.13;;;15.14;100.00
3294;BME280;1659;51.470;6.770;2022-10-22T07:12:09;101034.72;;;15.26;100.00
3294;BME280;1659;51.470;6.770;2022-10-22T07:14:36;101043.16;;;15.39;99.95
3294;BME280;1659;51.470;6.770;2022-10-22T07:17:02;101043.66;;;15.51;99.56
3294;BME280;1659;51.470;6.770;2022-10-22T07:19:29;101049.47;;;15.62;99.16
3294;BME280;1659;51.470;6.770;2022-10-22T07:21:56;101053.59;;;15.71;98.51
3294;BME280;1659;51.470;6.770;2022-10-22T07:24:24;101052.44;;;15.79;98.06
3294;BME280;1659;51.470;6.770;2022-10-22T07:26:50;101056.81;;;15.82;97.69
3294;BME280;1659;51.470;6.770;2022-10-22T07:29:17;101063.84;;;15.83;97.13
3294;BME280;1659;51.470;6.770;2022-10-22T07:31:43;101069.19;;;15.83;96.58
3294;BME280;1659;51.470;6.770;2022-10-22T07:34:10;101070.13;;;15.82;95.99
3294;BME280;1659;51.470;6.770;2022-10-22T07:36:37;101070.94;;;15.84;95.50
3294;BME280;1659;51.470;6.770;2022-10-22T07:39:03;101079.75;;;15.86;94.87
3294;BME280;1659;51.470;6.770;2022-10-22T07:41:31;101082.22;;;15.92;94.34
3294;BME280;1659;51.470;6.770;2022-10-22T07:43:58;101078.44;;;15.98;93.91
3294;BME280;1659;51.470;6.770;2022-10-22T07:46:25;101089.75;;;16.04;93.09
3294;BME280;1659;51.470;6.770;2022-10-22T07:48:53;101097.56;;;16.09;92.35
3294;BME280;1659;51.470;6.770;2022-10-22T07:51:20;101085.94;;;16.12;91.72
3294;BME280;1659;51.470;6.770;2022-10-22T07:53:46;101091.28;;;16.12;90.87
3294;BME280;1659;51.470;6.770;2022-10-22T07:56:13;101098.41;;;16.11;90.56
3294;BME280;1659;51.470;6.770;2022-10-22T07:58:41;101094.84;;;16.11;90.29
3294;BME280;1659;51.470;6.770;2022-10-22T08:01:07;101102.78;;;16.12;89.90
3294;BME280;1659;51.470;6.770;2022-10-22T08:03:34;101101.69;;;16.18;89.36
3294;BME280;1659;51.470;6.770;2022-10-22T08:06:01;101107.63;;;16.26;88.70
3294;BME280;1659;51.470;6.770;2022-10-22T08:08:28;101099.28;;;16.35;88.23
3294;BME280;1659;51.470;6.770;2022-10-22T08:10:56;101105.88;;;16.49;87.33
3294;BME280;1659;51.470;6.770;2022-10-22T08:13:23;101111.91;;;16.54;86.93
3294;BME280;1659;51.470;6.770;2022-10-22T08:15:51;101118.88;;;16.58;86.54
3294;BME280;1659;51.470;6.770;2022-10-22T08:18:18;101116.09;;;16.61;86.27
3294;BME280;1659;51.470;6.770;2022-10-22T08:20:44;101117.03;;;16.60;85.66
3294;BME280;1659;51.470;6.770;2022-10-22T08:23:11;101133.84;;;16.62;85.64
3294;BME280;1659;51.470;6.770;2022-10-22T08:25:38;101129.22;;;16.67;85.68
3294;BME280;1659;51.470;6.770;2022-10-22T08:28:04;101131.94;;;16.66;85.13
3294;BME280;1659;51.470;6.770;2022-10-22T08:30:31;101137.44;;;16.61;84.43
3294;BME280;1659;51.470;6.770;2022-10-22T08:32:59;101139.41;;;16.56;84.01
3294;BME280;1659;51.470;6.770;2022-10-22T08:35:26;101138.59;;;16.54;83.93
3294;BME280;1659;51.470;6.770;2022-10-22T08:37:52;101150.28;;;16.51;83.94
3294;BME280;1659;51.470;6.770;2022-10-22T08:40:23;101151.25;;;16.49;83.91
3294;BME280;1659;51.470;6.770;2022-10-22T08:43:09;101150.44;;;16.47;83.24
3294;BME280;1659;51.470;6.770;2022-10-22T08:45:40;101152.25;;;16.46;83.55
3294;BME280;1659;51.470;6.770;2022-10-22T08:48:23;101157.56;;;16.46;83.38
3294;BME280;1659;51.470;6.770;2022-10-22T08:50:56;101154.91;;;16.46;83.72
3294;BME280;1659;51.470;6.770;2022-10-22T08:53:29;101167.34;;;16.46;83.17
3294;BME280;1659;51.470;6.770;2022-10-22T08:55:57;101165.56;;;16.46;83.17
3294;BME280;1659;51.470;6.770;2022-10-22T08:58:28;101164.56;;;16.49;83.25
3294;BME280;1659;51.470;6.770;2022-10-22T09:00:58;101166.19;;;16.53;83.32
3294;BME280;1659;51.470;6.770;2022-10-22T09:03:34;101174.78;;;16.61;83.30
3294;BME280;1659;51.470;6.770;2022-10-22T09:06:08;101167.38;;;16.69;83.23
3294;BME280;1659;51.470;6.770;2022-10-22T09:08:36;101168.13;;;16.73;82.72
3294;BME280;1659;51.470;6.770;2022-10-22T09:11:08;101174.38;;;16.72;82.29
3294;BME280;1659;51.470;6.770;2022-10-22T09:13:40;101193.13;;;16.70;82.20
3294;BME280;1659;51.470;6.770;2022-10-22T09:16:14;101188.72;;;16.69;82.08
3294;BME280;1659;51.470;6.770;2022-10-22T09:18:48;101185.00;;;16.73;82.05
3294;BME280;1659;51.470;6.770;2022-10-22T09:24:27;101186.22;;;16.90;81.86
3294;BME280;1659;51.470;6.770;2022-10-22T09:26:56;101184.09;;;16.98;81.88
3294;BME280;1659;51.470;6.770;2022-10-22T09:29:30;101193.00;;;16.98;81.11
3294;BME280;1659;51.470;6.770;2022-10-22T09:31:57;101193.06;;;16.97;81.14
3294;BME280;1659;51.470;6.770;2022-10-22T09:34:25;101191.34;;;16.94;80.89
3294;BME280;1659;51.470;6.770;2022-10-22T09:36:56;101194.22;;;16.90;80.76
3294;BME280;1659;51.470;6.770;2022-10-22T09:39:25;101198.72;;;16.88;80.99
3294;BME280;1659;51.470;6.770;2022-10-22T09:41:51;101197.91;;;16.86;80.68
3294;BME280;1659;51.470;6.770;2022-10-22T09:44:19;101195.25;;;16.86;80.76
3294;BME280;1659;51.470;6.770;2022-10-22T09:46:45;101189.84;;;16.87;80.54
3294;BME280;1659;51.470;6.770;2022-10-22T09:49:13;101194.06;;;16.93;80.10
3294;BME280;1659;51.470;6.770;2022-10-22T09:51:51;101195.56;;;17.00;80.07
3294;BME280;1659;51.470;6.770;2022-10-22T09:54:20;101197.97;;;17.08;80.10
3294;BME280;1659;51.470;6.770;2022-10-22T09:56:51;101203.00;;;17.15;79.83
3294;BME280;1659;51.470;6.770;2022-10-22T09:59:25;101202.66;;;17.25;80.01
3294;BME280;1659;51.470;6.770;2022-10-22T10:01:58;101205.88;;;17.33;79.32
3294;BME280;1659;51.470;6.770;2022-10-22T10:04:25;101214.03;;;17.30;78.49
3294;BME280;1659;51.470;6.770;2022-10-22T10:06:54;101225.63;;;17.29;78.63
3294;BME280;1659;51.470;6.770;2022-10-22T10:09:23;101215.81;;;17.29;78.71
3294;BME280;1659;51.470;6.770;2022-10-22T10:11:57;101224.78;;;17.28;78.31
3294;BME280;1659;51.470;6.770;2022-10-22T10:14:32;101220.28;;;17.29;78.66
3294;BME280;1659;51.470;6.770;2022-10-22T10:17:07;101227.38;;;17.30;78.48
3294;BME280;1659;51.470;6.770;2022-10-22T10:19:44;101236.31;;;17.29;78.24
3294;BME280;1659;51.470;6.770;2022-10-22T10:22:24;101232.47;;;17.36;78.44
3294;BME280;1659;51.470;6.770;2022-10-22T10:25:03;101240.31;;;17.41;77.86
3294;BME280;1659;51.470;6.770;2022-10-22T10:27:38;101238.13;;;17.50;77.91
3294;BME280;1659;51.470;6.770;2022-10-22T10:30:10;101235.84;;;17.63;77.68
3294;BME280;1659;51.470;6.770;2022-10-22T10:32:49;101242.47;;;17.75;77.49
3294;BME280;1659;51.470;6.770;2022-10-22T10:35:23;101236.94;;;17.80;76.99
3294;BME280;1659;51.470;6.770;2022-10-22T10:38:01;101240.25;;;17.86;77.19
3294;BME280;1659;51.470;6.770;2022-10-22T10:40:39;101242.81;;;17.89;76.28
3294;BME280;1659;51.470;6.770;2022-10-22T10:43:11;101250.25;;;17.81;76.12
3294;BME280;1659;51.470;6.770;2022-10-22T10:45:46;101251.22;;;17.79;76.30
3294;BME280;1659;51.470;6.770;2022-10-22T10:48:35;101263.00;;;17.74;76.03
3294;BME280;1659;51.470;6.770;2022-10-22T10:51:07;101250.69;;;17.70;76.13
3294;BME280;1659;51.470;6.770;2022-10-22T10:53:54;101248.81;;;17.72;76.14
3294;BME280;1659;51.470;6.770;2022-10-22T10:56:38;101260.31;;;17.74;76.03
3294;BME280;1659;51.470;6.770;2022-10-22T10:59:16;101252.91;;;17.81;76.13
3294;BME280;1659;51.470;6.770;2022-10-22T11:01:53;101260.63;;;17.89;76.36
3294;BME280;1659;51.470;6.770;2022-10-22T11:07:35;101264.88;;;17.95;75.73
3294;BME280;1659;51.470;6.770;2022-10-22T11:10:12;101257.66;;;17.97;75.66
3294;BME280;1659;51.470;6.770;2022-10-22T11:12:45;101264.16;;;18.11;75.69
3294;BME280;1659;51.470;6.770;2022-10-22T11:15:24;101265.44;;;18.23;75.54
3294;BME280;1659;51.470;6.770;2022-10-22T11:17:54;101263.50;;;18.27;75.26
3294;BME280;1659;51.470;6.770;2022-10-22T11:20:27;101252.47;;;18.35;75.33
3294;BME280;1659;51.470;6.770;2022-10-22T11:23:01;101265.47;;;18.44;74.85
3294;BME280;1659;51.470;6.770;2022-10-22T11:25:34;101263.28;;;18.52;74.83
3294;BME280;1659;51.470;6.770;2022-10-22T11:28:10;101263.84;;;18.60;74.71
3294;BME280;1659;51.470;6.770;2022-10-22T11:30:39;101265.47;;;18.64;74.53
3294;BME280;1659;51.470;6.770;2022-10-22T11:33:11;101280.19;;;18.54;73.79
3294;BME280;1659;51.470;6.770;2022-10-22T11:35:41;101268.44;;;18.36;73.01
3294;BME280;1659;51.470;6.770;2022-10-22T11:38:12;101277.81;;;18.26;73.36
3294;BME280;1659;51.470;6.770;2022-10-22T11:40:45;101281.97;;;18.13;72.50
3294;BME280;1659;51.470;6.770;2022-10-22T11:43:26;101279.75;;;18.02;72.73
3294;BME280;1659;51.470;6.770;2022-10-22T11:46:01;101278.09;;;17.98;72.99
3294;BME280;1659;51.470;6.770;2022-10-22T11:48:35;101278.09;;;17.98;73.51
3294;BME280;1659;51.470;6.770;2022-10-22T11:51:03;101282.59;;;17.97;73.40
3294;BME280;1659;51.470;6.770;2022-10-22T11:53:55;101279.19;;;17.93;73.79
3294;BME280;1659;51.470;6.770;2022-10-22T11:56:25;101286.28;;;17.95;73.93
3294;BME280;1659;51.470;6.770;2022-10-22T11:58:53;101289.94;;;17.92;73.97
3294;BME280;1659;51.470;6.770;2022-10-22T12:01:39;101277.56;;;17.89;73.80
3294;BME280;1659;51.470;6.770;2022-10-22T12:04:18;101275.81;;;17.88;73.90
3294;BME280;1659;51.470;6.770;2022-10-22T12:06:56;101276.56;;;17.92;73.75
3294;BME280;1659;51.470;6.770;2022-10-22T12:09:23;101271.97;;;17.96;73.48
3294;BME280;1659;51.470;6.770;2022-10-22T12:12:01;101266.38;;;18.02;73.52
3294;BME280;1659;51.470;6.770;2022-10-22T12:14:32;101271.31;;;18.11;73.46
3294;BME280;1659;51.470;6.770;2022-10-22T12:17:04;101265.78;;;18.16;73.35
3294;BME280;1659;51.470;6.770;2022-10-22T12:19:36;101270.84;;;18.22;73.21
3294;BME280;1659;51.470;6.770;2022-10-22T12:22:12;101271.47;;;18.28;72.79
3294;BME280;1659;51.470;6.770;2022-10-22T12:24:41;101264.19;;;18.32;72.74
3294;BME280;1659;51.470;6.770;2022-10-22T12:27:21;101254.94;;;18.39;72.40
3294;BME280;1659;51.470;6.770;2022-10-22T12:29:48;101252.81;;;18.47;72.30
3294;BME280;1659;51.470;6.770;2022-10-22T12:32:15;101249.72;;;18.57;72.14
3294;BME280;1659;51.470;6.770;2022-10-22T12:34:45;101251.31;;;18.61;71.56
3294;BME280;1659;51.470;6.770;2022-10-22T12:37:12;101251.00;;;18.68;71.65
3294;BME280;1659;51.470;6.770;2022-10-22T12:39:39;101249.09;;;18.71;70.84
3294;BME280;1659;51.470;6.770;2022-10-22T12:42:06;101249.84;;;18.74;70.63
3294;BME280;1659;51.470;6.770;2022-10-22T12:44:37;101246.97;;;18.79;70.31
3294;BME280;1659;51.470;6.770;2022-10-22T12:47:05;101250.69;;;18.75;69.91
3294;BME280;1659;51.470;6.770;2022-10-22T12:49:35;101265.69;;;18.79;70.26
3294;BME280;1659;51.470;6.770;2022-10-22T12:52:04;101247.09;;;18.76;70.15
3294;BME280;1659;51.470;6.770;2022-10-22T12:54:33;101247.22;;;18.73;69.97
3294;BME280;1659;51.470;6.770;2022-10-22T12:57:00;101258.88;;;18.72;70.04
3294;BME280;1659;51.470;6.770;2022-10-22T12:59:29;101250.63;;;18.76;69.79
3294;BME280;1659;51.470;6.770;2022-10-22T13:02:00;101247.75;;;18.81;69.89
3294;BME280;1659;51.470;6.770;2022-10-22T13:04:32;101257.41;;;18.85;69.80
3294;BME280;1659;51.470;6.770;2022-10-22T13:07:20;101258.00;;;18.92;69.88
3294;BME280;1659;51.470;6.770;2022-10-22T13:09:56;101260.63;;;18.93;69.78
3294;BME280;1659;51.470;6.770;2022-10-22T13:12:24;101251.72;;;18.93;69.94
3294;BME280;1659;51.470;6.770;2022-10-22T13:14:51;101263.28;;;18.93;70.06
3294;BME280;1659;51.470;6.770;2022-10-22T13:17:27;101261.53;;;18.92;69.88
3294;BME280;1659;51.470;6.770;2022-10-22T13:20:04;101275.16;;;18.88;69.68
3294;BME280;1659;51.470;6.770;2022-10-22T13:22:41;101273.53;;;18.83;69.82
3294;BME280;1659;51.470;6.770;2022-10-22T13:25:21;101274.66;;;18.78;69.60
3294;BME280;1659;51.470;6.770;2022-10-22T13:27:49;101275.09;;;18.68;69.54